PWSweather.com
Personal Weather Stations
Station Observations

MakarauRodneyNZ

Lat: -36.52421, Lon: 174.47572

Elevation: 606

Station Type: Davis VP2

http://kaiparaweather.dynu.net/index.php

Latest ConditionsUpdated 8:50:01 PM GMT+12:12 Thursday, Dec 12, 2019
Currently Today's Max Today's Min Today's Average
Temperature 62.7°F17.1°C 77.0°F25.0°C 57.8°F14.3°C 67.4°F19.7°C
Dew Point 57.8°F14.3°C 62.7°F17.1°C 55.9°F13.3°C 59.1°F15.1°C
Winds Calm Calm 9.2 mph -14.8 kmh - - 1.5 mph 2.4 kmh
Wind Gusts -- 12.7 mph20.4 kmh - -
Humidity 84% 95% 57% 76%
Pressure 29.81 in1009.5 mb 29.85 in1010.8 mb 29.77 in1008.1 mb -
Hour Temp Dew Point Humidity Winds Wind Gusts Pressure Precip Precip Rate Daily Precip Total
08:50 PM 62.7°F17.1°C 57.8°F14.3°C 84% Calm Calm -- 29.81 in1009.5 mb - 0.00 in0.0 mm 0.00 in0.0 mm
08:40 PM 63.1°F17.3°C 57.8°F14.3°C 83% Calm Calm -- 29.81 in1009.5 mb - 0.00 in0.0 mm 0.00 in0.0 mm
08:30 PM 63.4°F17.4°C 57.8°F14.3°C 82% Calm Calm -- 29.81 in1009.5 mb - 0.00 in0.0 mm 0.00 in0.0 mm
08:20 PM 63.8°F17.7°C 58.2°F14.6°C 82% Calm Calm -- 29.81 in1009.5 mb - 0.00 in0.0 mm 0.00 in0.0 mm
08:10 PM 64.2°F17.9°C 58.2°F14.6°C 81% Calm Calm -- 29.80 in1009.1 mb - 0.00 in0.0 mm 0.00 in0.0 mm
08:00 PM 64.7°F18.2°C 58.0°F14.4°C 79% Calm Calm -- 29.80 in1009.1 mb - 0.00 in0.0 mm 0.00 in0.0 mm
07:50 PM 65.4°F18.6°C 58.4°F14.7°C 78% Calm Calm -- 29.80 in1009.1 mb - 0.00 in0.0 mm 0.00 in0.0 mm
07:40 PM 66.2°F19.0°C 58.8°F14.9°C 77% Calm Calm -- 29.80 in1009.1 mb - 0.00 in0.0 mm 0.00 in0.0 mm
07:30 PM 66.9°F19.4°C 59.1°F15.1°C 76% Calm Calm -- 29.79 in1008.8 mb - 0.00 in0.0 mm 0.00 in0.0 mm
07:20 PM 67.6°F19.8°C 59.4°F15.2°C 75% Calm Calm -- 29.79 in1008.8 mb - 0.00 in0.0 mm 0.00 in0.0 mm
07:10 PM 68.1°F20.1°C 59.5°F15.3°C 74% Calm Calm -- 29.79 in1008.8 mb - 0.00 in0.0 mm 0.00 in0.0 mm
07:00 PM 68.7°F20.4°C 59.7°F15.4°C 73% Calm Calm -- 29.79 in1008.8 mb - 0.00 in0.0 mm 0.00 in0.0 mm
06:50 PM 69.1°F20.6°C 59.3°F15.2°C 71% Calm Calm -- 29.79 in1008.8 mb - 0.00 in0.0 mm 0.00 in0.0 mm
06:40 PM 69.6°F20.9°C 59.4°F15.2°C 70% Calm Calm -- 29.78 in1008.5 mb - 0.00 in0.0 mm 0.00 in0.0 mm
06:30 PM 70.0°F21.1°C 59.8°F15.4°C 70% 4.6 mph NNW7.4 kmh NNW 6.9 mph11.1 kmh 29.78 in1008.5 mb - 0.00 in0.0 mm 0.00 in0.0 mm
06:20 PM 70.5°F21.4°C 60.2°F15.7°C 70% 5.8 mph NW9.3 kmh NW 9.2 mph14.8 kmh 29.78 in1008.5 mb - 0.00 in0.0 mm 0.00 in0.0 mm
06:10 PM 70.8°F21.6°C 60.5°F15.8°C 70% 3.5 mph WSW5.6 kmh WSW 9.2 mph14.8 kmh 29.78 in1008.5 mb - 0.00 in0.0 mm 0.00 in0.0 mm
06:00 PM 70.6°F21.4°C 60.3°F15.7°C 70% Calm Calm -- 29.78 in1008.5 mb - 0.00 in0.0 mm 0.00 in0.0 mm
05:50 PM 71.6°F22.0°C 60.5°F15.8°C 68% 2.3 mph SW3.7 kmh SW 9.2 mph14.8 kmh 29.78 in1008.5 mb - 0.00 in0.0 mm 0.00 in0.0 mm
05:40 PM 71.7°F22.1°C 60.6°F15.9°C 68% 4.6 mph NNW7.4 kmh NNW 8.1 mph13.0 kmh 29.78 in1008.5 mb - 0.00 in0.0 mm 0.00 in0.0 mm
05:30 PM 72.5°F22.5°C 60.5°F15.8°C 66% Calm Calm 6.9 mph11.1 kmh 29.78 in1008.5 mb - 0.00 in0.0 mm 0.00 in0.0 mm
05:20 PM 73.3°F22.9°C 60.8°F16.0°C 65% 8.1 mph NNW13.0 kmh NNW 10.4 mph16.7 kmh 29.78 in1008.5 mb - 0.00 in0.0 mm 0.00 in0.0 mm
05:10 PM 73.2°F22.9°C 61.2°F16.2°C 66% 2.3 mph W3.7 kmh W 4.6 mph7.4 kmh 29.78 in1008.5 mb - 0.00 in0.0 mm 0.00 in0.0 mm
05:00 PM 72.7°F22.6°C 60.7°F15.9°C 66% Calm Calm 8.1 mph13.0 kmh 29.77 in1008.1 mb - 0.00 in0.0 mm 0.00 in0.0 mm
04:50 PM 72.1°F22.3°C 60.5°F15.8°C 67% 2.3 mph WSW3.7 kmh WSW 3.5 mph5.6 kmh 29.77 in1008.1 mb - 0.00 in0.0 mm 0.00 in0.0 mm
04:40 PM 73.0°F22.8°C 61.4°F16.3°C 67% 6.9 mph NW11.1 kmh NW 11.5 mph18.5 kmh 29.77 in1008.1 mb - 0.00 in0.0 mm 0.00 in0.0 mm
04:30 PM 75.3°F24.1°C 61.8°F16.6°C 63% 1.2 mph WSW1.9 kmh WSW 3.5 mph5.6 kmh 29.77 in1008.1 mb - 0.00 in0.0 mm 0.00 in0.0 mm
04:20 PM 75.3°F24.1°C 60.9°F16.1°C 61% Calm Calm -- 29.77 in1008.1 mb - 0.00 in0.0 mm 0.00 in0.0 mm
04:10 PM 75.2°F24.0°C 60.8°F16.0°C 61% 1.2 mph W1.9 kmh W 6.9 mph11.1 kmh 29.77 in1008.1 mb - 0.00 in0.0 mm 0.00 in0.0 mm
04:00 PM 75.0°F23.9°C 62.0°F16.7°C 64% 1.2 mph WSW1.9 kmh WSW -- 29.77 in1008.1 mb - 0.00 in0.0 mm 0.00 in0.0 mm
03:50 PM 75.4°F24.1°C 61.5°F16.4°C 62% 4.6 mph NW7.4 kmh NW 12.7 mph20.4 kmh 29.78 in1008.5 mb - 0.00 in0.0 mm 0.00 in0.0 mm
03:40 PM 75.6°F24.2°C 61.7°F16.5°C 62% 3.5 mph WSW5.6 kmh WSW 9.2 mph14.8 kmh 29.78 in1008.5 mb - 0.00 in0.0 mm 0.00 in0.0 mm
03:30 PM 75.7°F24.3°C 61.3°F16.3°C 61% 2.3 mph WNW3.7 kmh WNW 5.8 mph9.3 kmh 29.78 in1008.5 mb - 0.00 in0.0 mm 0.00 in0.0 mm
03:20 PM 75.7°F24.3°C 61.7°F16.5°C 62% 6.9 mph WSW11.1 kmh WSW 12.7 mph20.4 kmh 29.78 in1008.5 mb - 0.00 in0.0 mm 0.00 in0.0 mm
03:10 PM 75.8°F24.3°C 61.4°F16.3°C 61% 2.3 mph NW3.7 kmh NW 9.2 mph14.8 kmh 29.78 in1008.5 mb - 0.00 in0.0 mm 0.00 in0.0 mm
03:00 PM 75.8°F24.3°C 60.5°F15.8°C 59% 9.2 mph NW14.8 kmh NW 11.5 mph18.5 kmh 29.78 in1008.5 mb - 0.00 in0.0 mm 0.00 in0.0 mm
02:50 PM 76.2°F24.6°C 60.4°F15.8°C 58% 2.3 mph NW3.7 kmh NW 9.2 mph14.8 kmh 29.79 in1008.8 mb - 0.00 in0.0 mm 0.00 in0.0 mm
02:40 PM 76.1°F24.5°C 61.7°F16.5°C 61% 3.5 mph WSW5.6 kmh WSW 5.8 mph9.3 kmh 29.78 in1008.5 mb - 0.00 in0.0 mm 0.00 in0.0 mm
02:30 PM 75.9°F24.4°C 61.0°F16.1°C 60% 5.8 mph NW9.3 kmh NW 11.5 mph18.5 kmh 29.78 in1008.5 mb - 0.00 in0.0 mm 0.00 in0.0 mm
02:20 PM 76.6°F24.8°C 61.2°F16.2°C 59% 8.1 mph N13.0 kmh N 8.1 mph13.0 kmh 29.79 in1008.8 mb - 0.00 in0.0 mm 0.00 in0.0 mm
02:10 PM 77.0°F25.0°C 62.1°F16.7°C 60% 4.6 mph W7.4 kmh W 8.1 mph13.0 kmh 29.79 in1008.8 mb - 0.00 in0.0 mm 0.00 in0.0 mm
02:00 PM 76.6°F24.8°C 60.2°F15.7°C 57% 1.2 mph NNW1.9 kmh NNW 8.1 mph13.0 kmh 29.79 in1008.8 mb - 0.00 in0.0 mm 0.00 in0.0 mm
01:50 PM 76.5°F24.7°C 61.1°F16.2°C 59% 1.2 mph NNW1.9 kmh NNW 1.2 mph1.9 kmh 29.79 in1008.8 mb - 0.00 in0.0 mm 0.00 in0.0 mm
01:40 PM 76.3°F24.6°C 61.4°F16.3°C 60% 3.5 mph W5.6 kmh W 11.5 mph18.5 kmh 29.79 in1008.8 mb - 0.00 in0.0 mm 0.00 in0.0 mm
01:30 PM 75.9°F24.4°C 60.5°F15.8°C 59% Calm Calm 4.6 mph7.4 kmh 29.80 in1009.1 mb - 0.00 in0.0 mm 0.00 in0.0 mm
01:20 PM 76.4°F24.7°C 61.5°F16.4°C 60% 2.3 mph WNW3.7 kmh WNW 11.5 mph18.5 kmh 29.80 in1009.1 mb - 0.00 in0.0 mm 0.00 in0.0 mm
01:10 PM 76.1°F24.5°C 61.2°F16.2°C 60% 3.5 mph NNW5.6 kmh NNW 8.1 mph13.0 kmh 29.80 in1009.1 mb - 0.00 in0.0 mm 0.00 in0.0 mm
01:00 PM 75.8°F24.3°C 61.4°F16.3°C 61% 2.3 mph WSW3.7 kmh WSW 8.1 mph13.0 kmh 29.80 in1009.1 mb - 0.00 in0.0 mm 0.00 in0.0 mm
12:50 PM 75.8°F24.3°C 61.4°F16.3°C 61% 3.5 mph N5.6 kmh N 3.5 mph5.6 kmh 29.81 in1009.5 mb - 0.00 in0.0 mm 0.00 in0.0 mm
12:40 PM 75.3°F24.1°C 62.7°F17.1°C 65% 4.6 mph NW7.4 kmh NW 10.4 mph16.7 kmh 29.80 in1009.1 mb - 0.00 in0.0 mm 0.00 in0.0 mm
12:30 PM 74.2°F23.4°C 60.8°F16.0°C 63% 2.3 mph NW3.7 kmh NW 6.9 mph11.1 kmh 29.81 in1009.5 mb - 0.00 in0.0 mm 0.00 in0.0 mm
12:20 PM 74.6°F23.7°C 61.1°F16.2°C 63% 2.3 mph SW3.7 kmh SW 3.5 mph5.6 kmh 29.81 in1009.5 mb - 0.00 in0.0 mm 0.00 in0.0 mm
12:10 PM 75.2°F24.0°C 61.3°F16.3°C 62% 1.2 mph NW1.9 kmh NW 4.6 mph7.4 kmh 29.81 in1009.5 mb - 0.00 in0.0 mm 0.00 in0.0 mm
12:00 PM 75.2°F24.0°C 61.7°F16.5°C 63% 5.8 mph WSW9.3 kmh WSW 8.1 mph13.0 kmh 29.81 in1009.5 mb - 0.00 in0.0 mm 0.00 in0.0 mm
11:50 AM 74.8°F23.8°C 61.4°F16.3°C 63% 3.5 mph NNW5.6 kmh NNW 10.4 mph16.7 kmh 29.82 in1009.8 mb - 0.00 in0.0 mm 0.00 in0.0 mm
11:40 AM 74.4°F23.6°C 61.0°F16.1°C 63% Calm Calm -- 29.82 in1009.8 mb - 0.00 in0.0 mm 0.00 in0.0 mm
11:30 AM 74.6°F23.7°C 61.6°F16.4°C 64% 5.8 mph WNW9.3 kmh WNW 11.5 mph18.5 kmh 29.82 in1009.8 mb - 0.00 in0.0 mm 0.00 in0.0 mm
11:20 AM 73.5°F23.1°C 61.0°F16.1°C 65% 3.5 mph WSW5.6 kmh WSW 8.1 mph13.0 kmh 29.81 in1009.5 mb - 0.00 in0.0 mm 0.00 in0.0 mm
11:10 AM 73.3°F22.9°C 61.7°F16.5°C 67% 1.2 mph WSW1.9 kmh WSW 4.6 mph7.4 kmh 29.81 in1009.5 mb - 0.00 in0.0 mm 0.00 in0.0 mm
11:00 AM 71.8°F22.1°C 60.2°F15.7°C 67% 1.2 mph SW1.9 kmh SW 2.3 mph3.7 kmh 29.82 in1009.8 mb - 0.00 in0.0 mm 0.00 in0.0 mm
10:50 AM 72.3°F22.4°C 60.3°F15.7°C 66% 2.3 mph SW3.7 kmh SW 3.5 mph5.6 kmh 29.82 in1009.8 mb - 0.00 in0.0 mm 0.00 in0.0 mm
10:40 AM 72.9°F22.7°C 60.4°F15.8°C 65% 3.5 mph SW5.6 kmh SW 4.6 mph7.4 kmh 29.82 in1009.8 mb - 0.00 in0.0 mm 0.00 in0.0 mm
10:30 AM 73.2°F22.9°C 59.8°F15.4°C 63% Calm Calm -- 29.82 in1009.8 mb - 0.00 in0.0 mm 0.00 in0.0 mm
10:20 AM 73.2°F22.9°C 60.7°F15.9°C 65% 2.3 mph N3.7 kmh N 5.8 mph9.3 kmh 29.82 in1009.8 mb - 0.00 in0.0 mm 0.00 in0.0 mm
10:10 AM 73.4°F23.0°C 60.0°F15.6°C 63% 3.5 mph N5.6 kmh N 10.4 mph16.7 kmh 29.82 in1009.8 mb - 0.00 in0.0 mm 0.00 in0.0 mm
10:00 AM 72.3°F22.4°C 60.8°F16.0°C 67% 3.5 mph NW5.6 kmh NW 6.9 mph11.1 kmh 29.82 in1009.8 mb - 0.00 in0.0 mm 0.00 in0.0 mm
09:50 AM 69.8°F21.0°C 60.0°F15.6°C 71% 1.2 mph WSW1.9 kmh WSW 5.8 mph9.3 kmh 29.82 in1009.8 mb - 0.00 in0.0 mm 0.00 in0.0 mm
09:40 AM 71.9°F22.2°C 61.2°F16.2°C 69% 2.3 mph SW3.7 kmh SW 10.4 mph16.7 kmh 29.82 in1009.8 mb - 0.00 in0.0 mm 0.00 in0.0 mm
09:30 AM 72.5°F22.5°C 59.6°F15.3°C 64% 1.2 mph WSW1.9 kmh WSW 5.8 mph9.3 kmh 29.82 in1009.8 mb - 0.00 in0.0 mm 0.00 in0.0 mm
09:20 AM 72.7°F22.6°C 60.3°F15.7°C 65% 1.2 mph NNW1.9 kmh NNW 8.1 mph13.0 kmh 29.82 in1009.8 mb - 0.00 in0.0 mm 0.00 in0.0 mm
09:10 AM 71.8°F22.1°C 60.7°F15.9°C 68% 3.5 mph N5.6 kmh N 10.4 mph16.7 kmh 29.83 in1010.2 mb - 0.00 in0.0 mm 0.00 in0.0 mm
09:00 AM 70.9°F21.6°C 59.8°F15.4°C 68% 5.8 mph NNW9.3 kmh NNW 6.9 mph11.1 kmh 29.83 in1010.2 mb - 0.00 in0.0 mm 0.00 in0.0 mm
08:50 AM 69.8°F21.0°C 60.4°F15.8°C 72% Calm Calm 1.2 mph1.9 kmh 29.83 in1010.2 mb - 0.00 in0.0 mm 0.00 in0.0 mm
08:40 AM 69.9°F21.1°C 60.1°F15.6°C 71% Calm Calm -- 29.82 in1009.8 mb - 0.00 in0.0 mm 0.00 in0.0 mm
08:30 AM 69.5°F20.8°C 60.5°F15.8°C 73% Calm Calm 3.5 mph5.6 kmh 29.83 in1010.2 mb - 0.00 in0.0 mm 0.00 in0.0 mm
08:20 AM 67.3°F19.6°C 59.5°F15.3°C 76% Calm Calm -- 29.83 in1010.2 mb - 0.00 in0.0 mm 0.00 in0.0 mm
08:10 AM 66.7°F19.3°C 59.7°F15.4°C 78% 1.2 mph NW1.9 kmh NW 5.8 mph9.3 kmh 29.83 in1010.2 mb - 0.00 in0.0 mm 0.00 in0.0 mm
08:00 AM 67.1°F19.5°C 59.3°F15.2°C 76% 1.2 mph SW1.9 kmh SW 1.2 mph1.9 kmh 29.83 in1010.2 mb - 0.00 in0.0 mm 0.00 in0.0 mm
07:50 AM 67.0°F19.4°C 59.9°F15.5°C 78% 4.6 mph NNW7.4 kmh NNW 8.1 mph13.0 kmh 29.83 in1010.2 mb - 0.00 in0.0 mm 0.00 in0.0 mm
07:40 AM 68.8°F20.4°C 60.6°F15.9°C 75% Calm Calm -- 29.83 in1010.2 mb - 0.00 in0.0 mm 0.00 in0.0 mm
07:30 AM 66.8°F19.3°C 60.1°F15.6°C 79% Calm Calm -- 29.83 in1010.2 mb - 0.00 in0.0 mm 0.00 in0.0 mm
07:20 AM 66.2°F19.0°C 59.8°F15.4°C 80% 1.2 mph SW1.9 kmh SW 5.8 mph9.3 kmh 29.83 in1010.2 mb - 0.00 in0.0 mm 0.00 in0.0 mm
07:10 AM 63.8°F17.7°C 58.9°F14.9°C 84% Calm Calm -- 29.83 in1010.2 mb - 0.00 in0.0 mm 0.00 in0.0 mm
07:00 AM 62.6°F17.0°C 58.0°F14.4°C 85% 3.5 mph SW5.6 kmh SW 6.9 mph11.1 kmh 29.83 in1010.2 mb - 0.00 in0.0 mm 0.00 in0.0 mm
06:50 AM 62.4°F16.9°C 58.1°F14.5°C 86% 4.6 mph SW7.4 kmh SW 6.9 mph11.1 kmh 29.83 in1010.2 mb - 0.00 in0.0 mm 0.00 in0.0 mm
06:40 AM 61.5°F16.4°C 58.0°F14.4°C 88% Calm Calm 4.6 mph7.4 kmh 29.83 in1010.2 mb - 0.00 in0.0 mm 0.00 in0.0 mm
06:30 AM 60.7°F15.9°C 57.8°F14.3°C 90% Calm Calm -- 29.83 in1010.2 mb - 0.00 in0.0 mm 0.00 in0.0 mm
06:20 AM 60.0°F15.6°C 58.0°F14.4°C 93% Calm Calm -- 29.83 in1010.2 mb - 0.00 in0.0 mm 0.00 in0.0 mm
06:10 AM 59.5°F15.3°C 57.8°F14.3°C 94% Calm Calm -- 29.83 in1010.2 mb - 0.00 in0.0 mm 0.00 in0.0 mm
06:00 AM 58.9°F14.9°C 57.5°F14.2°C 95% Calm Calm -- 29.83 in1010.2 mb - 0.00 in0.0 mm 0.00 in0.0 mm
05:50 AM 58.6°F14.8°C 56.8°F13.8°C 94% Calm Calm -- 29.82 in1009.8 mb - 0.00 in0.0 mm 0.00 in0.0 mm
05:40 AM 58.3°F14.6°C 56.6°F13.7°C 94% Calm Calm -- 29.82 in1009.8 mb - 0.00 in0.0 mm 0.00 in0.0 mm
05:30 AM 58.1°F14.5°C 56.4°F13.6°C 94% Calm Calm -- 29.82 in1009.8 mb - 0.00 in0.0 mm 0.00 in0.0 mm
05:20 AM 57.9°F14.4°C 56.2°F13.4°C 94% Calm Calm -- 29.82 in1009.8 mb - 0.00 in0.0 mm 0.00 in0.0 mm
05:10 AM 57.8°F14.3°C 56.1°F13.4°C 94% Calm Calm -- 29.82 in1009.8 mb - 0.00 in0.0 mm 0.00 in0.0 mm
05:00 AM 57.9°F14.4°C 55.9°F13.3°C 93% Calm Calm -- 29.82 in1009.8 mb - 0.00 in0.0 mm 0.00 in0.0 mm
04:50 AM 58.1°F14.5°C 56.1°F13.4°C 93% Calm Calm -- 29.82 in1009.8 mb - 0.00 in0.0 mm 0.00 in0.0 mm
04:40 AM 57.9°F14.4°C 55.9°F13.3°C 93% Calm Calm -- 29.82 in1009.8 mb - 0.00 in0.0 mm 0.00 in0.0 mm
04:30 AM 58.1°F14.5°C 56.1°F13.4°C 93% Calm Calm -- 29.82 in1009.8 mb - 0.00 in0.0 mm 0.00 in0.0 mm
04:20 AM 58.2°F14.6°C 56.2°F13.4°C 93% Calm Calm -- 29.81 in1009.5 mb - 0.00 in0.0 mm 0.00 in0.0 mm
04:10 AM 58.4°F14.7°C 56.1°F13.4°C 92% Calm Calm -- 29.81 in1009.5 mb - 0.00 in0.0 mm 0.00 in0.0 mm
04:00 AM 58.4°F14.7°C 56.4°F13.6°C 93% Calm Calm -- 29.82 in1009.8 mb - 0.00 in0.0 mm 0.00 in0.0 mm
03:50 AM 58.5°F14.7°C 56.2°F13.4°C 92% Calm Calm -- 29.81 in1009.5 mb - 0.00 in0.0 mm 0.00 in0.0 mm
03:40 AM 58.7°F14.8°C 56.7°F13.7°C 93% Calm Calm -- 29.82 in1009.8 mb - 0.00 in0.0 mm 0.00 in0.0 mm
03:30 AM 58.8°F14.9°C 56.8°F13.8°C 93% Calm Calm -- 29.82 in1009.8 mb - 0.00 in0.0 mm 0.00 in0.0 mm
03:20 AM 58.9°F14.9°C 56.9°F13.8°C 93% Calm Calm -- 29.82 in1009.8 mb - 0.00 in0.0 mm 0.00 in0.0 mm
03:10 AM 58.7°F14.8°C 56.7°F13.7°C 93% Calm Calm -- 29.82 in1009.8 mb - 0.00 in0.0 mm 0.00 in0.0 mm
03:00 AM 58.5°F14.7°C 56.5°F13.6°C 93% Calm Calm -- 29.82 in1009.8 mb - 0.00 in0.0 mm 0.00 in0.0 mm
02:50 AM 58.5°F14.7°C 56.5°F13.6°C 93% Calm Calm -- 29.82 in1009.8 mb - 0.00 in0.0 mm 0.00 in0.0 mm
02:40 AM 58.7°F14.8°C 56.7°F13.7°C 93% Calm Calm -- 29.82 in1009.8 mb - 0.00 in0.0 mm 0.00 in0.0 mm
02:30 AM 58.8°F14.9°C 56.8°F13.8°C 93% Calm Calm -- 29.83 in1010.2 mb - 0.00 in0.0 mm 0.00 in0.0 mm
02:20 AM 58.8°F14.9°C 56.8°F13.8°C 93% Calm Calm -- 29.83 in1010.2 mb - 0.00 in0.0 mm 0.00 in0.0 mm
02:10 AM 58.7°F14.8°C 56.7°F13.7°C 93% Calm Calm -- 29.83 in1010.2 mb - 0.00 in0.0 mm 0.00 in0.0 mm
02:00 AM 58.6°F14.8°C 56.6°F13.7°C 93% Calm Calm -- 29.83 in1010.2 mb - 0.00 in0.0 mm 0.00 in0.0 mm
01:50 AM 58.8°F14.9°C 56.5°F13.6°C 92% Calm Calm -- 29.83 in1010.2 mb - 0.00 in0.0 mm 0.00 in0.0 mm
01:40 AM 58.9°F14.9°C 56.6°F13.7°C 92% Calm Calm -- 29.83 in1010.2 mb - 0.00 in0.0 mm 0.00 in0.0 mm
01:30 AM 59.0°F15.0°C 56.3°F13.5°C 91% Calm Calm -- 29.83 in1010.2 mb - 0.00 in0.0 mm 0.00 in0.0 mm
01:20 AM 59.1°F15.1°C 56.5°F13.6°C 91% Calm Calm -- 29.83 in1010.2 mb - 0.00 in0.0 mm 0.00 in0.0 mm
01:10 AM 58.9°F14.9°C 56.3°F13.5°C 91% Calm Calm -- 29.83 in1010.2 mb - 0.00 in0.0 mm 0.00 in0.0 mm
01:00 AM 58.8°F14.9°C 56.2°F13.4°C 91% Calm Calm -- 29.83 in1010.2 mb - 0.00 in0.0 mm 0.00 in0.0 mm
12:50 AM 59.0°F15.0°C 56.4°F13.6°C 91% Calm Calm -- 29.84 in1010.5 mb - 0.00 in0.0 mm 0.00 in0.0 mm
12:40 AM 59.2°F15.1°C 56.5°F13.6°C 91% Calm Calm -- 29.84 in1010.5 mb - 0.00 in0.0 mm 0.00 in0.0 mm
12:30 AM 59.1°F15.1°C 56.5°F13.6°C 91% 1.2 mph SW1.9 kmh SW 4.6 mph7.4 kmh 29.84 in1010.5 mb - 0.00 in0.0 mm 0.00 in0.0 mm
12:20 AM 59.1°F15.1°C 56.5°F13.6°C 91% Calm Calm -- 29.84 in1010.5 mb - 0.00 in0.0 mm 0.00 in0.0 mm
12:10 AM 59.1°F15.1°C 56.5°F13.6°C 91% Calm Calm 3.5 mph5.6 kmh 29.85 in1010.8 mb - 0.00 in0.0 mm 0.00 in0.0 mm
12:00 AM 59.1°F15.1°C 56.5°F13.6°C 91% Calm Calm -- 29.85 in1010.8 mb - 0.00 in0.0 mm 0.00 in0.0 mm